DEFMS EDHL-EDXW
Flight info
| Callsign | DEFMS |
|---|---|
| Flight time | 1h 40m |
| Altitude | |
| Route | DCT W |
| Aircraft | P28B |
Departure
| Time | 2026-04-22 13:56 |
|---|---|
| Airport | Lübeck Blankensee Airport (EDHL) |
Arrival
| Time | 2026-04-22 15:37 |
|---|---|
| Airport | Westerland Sylt Airport (EDXW) |
| Time | Latitude | Longitude | Altitude | Speed | Heading |
|---|---|---|---|---|---|
| 2026-04-22 13:47 | 53.80548 | 10.70582 | 53 ft | 0 kts | 228° |
| 2026-04-22 13:49 | 53.80544 | 10.70575 | 52 ft | 5 kts | 236° |
| 2026-04-22 13:49 | 53.80558 | 10.70522 | 53 ft | 3 kts | 316° |
| 2026-04-22 13:49 | 53.80568 | 10.70501 | 53 ft | 8 kts | 306° |
| 2026-04-22 13:50 | 53.80599 | 10.70396 | 53 ft | 10 kts | 231° |
| 2026-04-22 13:50 | 53.80548 | 10.70331 | 53 ft | 9 kts | 177° |
| 2026-04-22 13:50 | 53.80498 | 10.70384 | 52 ft | 8 kts | 150° |
| 2026-04-22 13:50 | 53.80455 | 10.70466 | 53 ft | 12 kts | 89° |
| 2026-04-22 13:51 | 53.80484 | 10.70620 | 53 ft | 14 kts | 76° |
| 2026-04-22 13:51 | 53.80510 | 10.70764 | 54 ft | 12 kts | 71° |
| 2026-04-22 13:51 | 53.80536 | 10.70905 | 54 ft | 14 kts | 74° |
| 2026-04-22 13:51 | 53.80567 | 10.71076 | 54 ft | 16 kts | 70° |
| 2026-04-22 13:52 | 53.80609 | 10.71281 | 54 ft | 20 kts | 74° |
| 2026-04-22 13:52 | 53.80652 | 10.71504 | 53 ft | 19 kts | 72° |
| 2026-04-22 13:52 | 53.80640 | 10.71707 | 56 ft | 15 kts | 110° |
| 2026-04-22 13:52 | 53.80612 | 10.71822 | 55 ft | 6 kts | 114° |
| 2026-04-22 13:53 | 53.80610 | 10.71829 | 55 ft | 0 kts | 114° |
| 2026-04-22 13:55 | 53.80607 | 10.71842 | 56 ft | 6 kts | 112° |
| 2026-04-22 13:55 | 53.80580 | 10.71952 | 54 ft | 13 kts | 119° |
| 2026-04-22 13:55 | 53.80530 | 10.71904 | 54 ft | 10 kts | 264° |
| 2026-04-22 13:55 | 53.80493 | 10.71713 | 60 ft | 41 kts | 252° |
| 2026-04-22 13:56 | 53.80354 | 10.70998 | 163 ft | 76 kts | 258° |
| 2026-04-22 13:56 | 53.80176 | 10.70104 | 472 ft | 82 kts | 258° |
| 2026-04-22 13:56 | 53.79741 | 10.69429 | 729 ft | 104 kts | 196° |
| 2026-04-22 13:56 | 53.79013 | 10.69779 | 981 ft | 115 kts | 158° |
| 2026-04-22 13:57 | 53.78324 | 10.70504 | 1106 ft | 123 kts | 131° |
| 2026-04-22 13:57 | 53.77977 | 10.71883 | 1135 ft | 124 kts | 91° |
| 2026-04-22 13:57 | 53.78037 | 10.73297 | 1270 ft | 119 kts | 77° |
| 2026-04-22 13:57 | 53.78174 | 10.74636 | 1411 ft | 113 kts | 73° |
| 2026-04-22 13:58 | 53.78374 | 10.75933 | 1396 ft | 117 kts | 67° |
| 2026-04-22 13:58 | 53.78655 | 10.77207 | 1400 ft | 113 kts | 53° |
| 2026-04-22 13:58 | 53.79242 | 10.77725 | 1376 ft | 97 kts | 346° |
| 2026-04-22 13:58 | 53.79894 | 10.77367 | 1201 ft | 95 kts | 336° |
| 2026-04-22 13:59 | 53.80474 | 10.76953 | 1013 ft | 87 kts | 332° |
| 2026-04-22 13:59 | 53.80967 | 10.76464 | 804 ft | 81 kts | 318° |
| 2026-04-22 13:59 | 53.81204 | 10.75598 | 562 ft | 90 kts | 269° |
| 2026-04-22 13:59 | 53.81035 | 10.74548 | 352 ft | 94 kts | 256° |
| 2026-04-22 14:00 | 53.80842 | 10.73559 | 157 ft | 85 kts | 256° |
| 2026-04-22 14:00 | 53.80672 | 10.72667 | 57 ft | 73 kts | 258° |
| 2026-04-22 14:00 | 53.80535 | 10.71946 | 62 ft | 67 kts | 252° |
| 2026-04-22 14:00 | 53.80365 | 10.71109 | 286 ft | 81 kts | 255° |
| 2026-04-22 14:01 | 53.80066 | 10.70265 | 637 ft | 90 kts | 217° |
| 2026-04-22 14:01 | 53.79416 | 10.70258 | 860 ft | 101 kts | 165° |
| 2026-04-22 14:01 | 53.78708 | 10.70642 | 979 ft | 112 kts | 160° |
| 2026-04-22 14:01 | 53.78215 | 10.71552 | 1167 ft | 113 kts | 96° |
| 2026-04-22 14:02 | 53.78298 | 10.72860 | 1242 ft | 115 kts | 69° |
| 2026-04-22 14:02 | 53.78526 | 10.74168 | 1338 ft | 119 kts | 66° |
| 2026-04-22 14:02 | 53.78813 | 10.75462 | 1421 ft | 118 kts | 63° |
| 2026-04-22 14:02 | 53.79141 | 10.76727 | 1333 ft | 118 kts | 62° |
| 2026-04-22 14:03 | 53.79566 | 10.77694 | 1206 ft | 95 kts | 21° |
| 2026-04-22 14:03 | 53.80176 | 10.77685 | 1127 ft | 88 kts | 341° |
| 2026-04-22 14:03 | 53.80777 | 10.77367 | 968 ft | 94 kts | 337° |
| 2026-04-22 14:03 | 53.81187 | 10.76646 | 752 ft | 93 kts | 277° |
| 2026-04-22 14:04 | 53.81121 | 10.75563 | 532 ft | 96 kts | 269° |
| 2026-04-22 14:04 | 53.81018 | 10.74433 | 321 ft | 99 kts | 256° |
| 2026-04-22 14:04 | 53.80818 | 10.73419 | 125 ft | 86 kts | 255° |
| 2026-04-22 14:04 | 53.80651 | 10.72555 | 56 ft | 68 kts | 257° |
| 2026-04-22 14:05 | 53.80524 | 10.71886 | 55 ft | 60 kts | 253° |
| 2026-04-22 14:05 | 53.80359 | 10.71055 | 232 ft | 82 kts | 256° |
| 2026-04-22 14:05 | 53.79540 | 10.69713 | 684 ft | 115 kts | 173° |
| 2026-04-22 14:06 | 53.78788 | 10.70234 | 898 ft | 118 kts | 150° |
| 2026-04-22 14:06 | 53.78372 | 10.71344 | 1118 ft | 115 kts | 90° |
| 2026-04-22 14:06 | 53.78497 | 10.72634 | 1215 ft | 114 kts | 71° |
| 2026-04-22 14:06 | 53.78740 | 10.73922 | 1340 ft | 116 kts | 65° |
| 2026-04-22 14:07 | 53.79039 | 10.75182 | 1342 ft | 116 kts | 63° |
| 2026-04-22 14:07 | 53.79369 | 10.76380 | 1304 ft | 108 kts | 41° |
| 2026-04-22 14:07 | 53.79992 | 10.76804 | 1023 ft | 98 kts | 350° |
| 2026-04-22 14:07 | 53.80629 | 10.76559 | 882 ft | 90 kts | 341° |
| 2026-04-22 14:08 | 53.81149 | 10.75968 | 690 ft | 91 kts | 301° |
| 2026-04-22 14:08 | 53.81107 | 10.74870 | 479 ft | 98 kts | 256° |
| 2026-04-22 14:08 | 53.80890 | 10.73833 | 234 ft | 88 kts | 256° |
| 2026-04-22 14:08 | 53.80714 | 10.72894 | 60 ft | 77 kts | 259° |
| 2026-04-22 14:09 | 53.80575 | 10.72157 | 54 ft | 53 kts | 253° |
| 2026-04-22 14:09 | 53.80438 | 10.71428 | 125 ft | 80 kts | 253° |
| 2026-04-22 14:09 | 53.80237 | 10.70569 | 456 ft | 74 kts | 250° |
| 2026-04-22 14:09 | 53.80004 | 10.69741 | 741 ft | 83 kts | 260° |
| 2026-04-22 14:10 | 53.80007 | 10.68671 | 883 ft | 98 kts | 282° |
| 2026-04-22 14:10 | 53.80187 | 10.67439 | 859 ft | 122 kts | 290° |
| 2026-04-22 14:10 | 53.80447 | 10.66036 | 1023 ft | 121 kts | 290° |
| 2026-04-22 14:10 | 53.80683 | 10.64727 | 1277 ft | 113 kts | 289° |
| 2026-04-22 14:11 | 53.80901 | 10.63476 | 1524 ft | 109 kts | 289° |
| 2026-04-22 14:11 | 53.81104 | 10.62251 | 1771 ft | 108 kts | 289° |
| 2026-04-22 14:11 | 53.81321 | 10.61046 | 2011 ft | 110 kts | 289° |
| 2026-04-22 14:11 | 53.81567 | 10.59719 | 2028 ft | 119 kts | 289° |
| 2026-04-22 14:12 | 53.81808 | 10.58373 | 2018 ft | 118 kts | 289° |
| 2026-04-22 14:12 | 53.82033 | 10.57041 | 2019 ft | 116 kts | 289° |
| 2026-04-22 14:12 | 53.82240 | 10.55746 | 2022 ft | 115 kts | 288° |
| 2026-04-22 14:12 | 53.82145 | 10.54418 | 2039 ft | 117 kts | 258° |
| 2026-04-22 14:13 | 53.81844 | 10.53108 | 2034 ft | 119 kts | 254° |
| 2026-04-22 14:13 | 53.81530 | 10.51793 | 2109 ft | 118 kts | 254° |
| 2026-04-22 14:13 | 53.81245 | 10.50536 | 2280 ft | 111 kts | 253° |
| 2026-04-22 14:13 | 53.80976 | 10.49320 | 2463 ft | 110 kts | 253° |
| 2026-04-22 14:14 | 53.80712 | 10.48122 | 2521 ft | 110 kts | 254° |
| 2026-04-22 14:14 | 53.80228 | 10.47052 | 2517 ft | 121 kts | 227° |
| 2026-04-22 14:14 | 53.79604 | 10.46063 | 2529 ft | 125 kts | 229° |
| 2026-04-22 14:14 | 53.78963 | 10.45047 | 2524 ft | 127 kts | 229° |
| 2026-04-22 14:15 | 53.78320 | 10.44030 | 2526 ft | 125 kts | 229° |
| 2026-04-22 14:15 | 53.77671 | 10.43021 | 2524 ft | 128 kts | 229° |
| 2026-04-22 14:15 | 53.77015 | 10.42014 | 2524 ft | 127 kts | 227° |
| 2026-04-22 14:15 | 53.76379 | 10.40993 | 2529 ft | 128 kts | 229° |
| 2026-04-22 14:16 | 53.75718 | 10.39953 | 2524 ft | 131 kts | 229° |
| 2026-04-22 14:16 | 53.75061 | 10.38948 | 2523 ft | 127 kts | 230° |
| 2026-04-22 14:16 | 53.74355 | 10.38038 | 2521 ft | 131 kts | 218° |
| 2026-04-22 14:16 | 53.73588 | 10.37209 | 2523 ft | 130 kts | 219° |
| 2026-04-22 14:17 | 53.72831 | 10.36370 | 2522 ft | 130 kts | 218° |
| 2026-04-22 14:17 | 53.72057 | 10.35540 | 2524 ft | 132 kts | 216° |
| 2026-04-22 14:17 | 53.71230 | 10.34820 | 2520 ft | 134 kts | 211° |
| 2026-04-22 14:17 | 53.70348 | 10.34224 | 2525 ft | 137 kts | 208° |
| 2026-04-22 14:18 | 53.69471 | 10.33616 | 2530 ft | 135 kts | 208° |
| 2026-04-22 14:18 | 53.68634 | 10.33007 | 2530 ft | 130 kts | 208° |
| 2026-04-22 14:18 | 53.67787 | 10.32426 | 2522 ft | 133 kts | 208° |
| 2026-04-22 14:18 | 53.66918 | 10.31849 | 2533 ft | 135 kts | 208° |
| 2026-04-22 14:19 | 53.66046 | 10.31262 | 2523 ft | 134 kts | 208° |
| 2026-04-22 14:19 | 53.65188 | 10.30684 | 2522 ft | 131 kts | 208° |
| 2026-04-22 14:19 | 53.64325 | 10.30109 | 2534 ft | 134 kts | 208° |
| 2026-04-22 14:19 | 53.63450 | 10.29545 | 2526 ft | 134 kts | 208° |
| 2026-04-22 14:20 | 53.61868 | 10.28085 | 2537 ft | 132 kts | 219° |
| 2026-04-22 14:20 | 53.61084 | 10.27276 | 2525 ft | 131 kts | 217° |
| 2026-04-22 14:20 | 53.60340 | 10.26481 | 2521 ft | 123 kts | 218° |
| 2026-04-22 14:21 | 53.59537 | 10.24202 | 2505 ft | 115 kts | 273° |
| 2026-04-22 14:21 | 53.59651 | 10.22917 | 2519 ft | 110 kts | 288° |
| 2026-04-22 14:22 | 53.60032 | 10.20410 | 2535 ft | 111 kts | 288° |
| 2026-04-22 14:22 | 53.60237 | 10.19127 | 2533 ft | 115 kts | 287° |
| 2026-04-22 14:22 | 53.60672 | 10.16544 | 2518 ft | 112 kts | 288° |
| 2026-04-22 14:23 | 53.60870 | 10.15307 | 2514 ft | 107 kts | 288° |
| 2026-04-22 14:23 | 53.60982 | 10.14512 | 2516 ft | 105 kts | 287° |
| 2026-04-22 14:23 | 53.61151 | 10.13317 | 2514 ft | 106 kts | 287° |
| 2026-04-22 14:23 | 53.61324 | 10.12120 | 2518 ft | 106 kts | 288° |
| 2026-04-22 14:24 | 53.61543 | 10.10472 | 2522 ft | 110 kts | 287° |
| 2026-04-22 14:24 | 53.61707 | 10.09218 | 2521 ft | 109 kts | 286° |
| 2026-04-22 14:24 | 53.61886 | 10.07992 | 2530 ft | 109 kts | 288° |
| 2026-04-22 14:24 | 53.62003 | 10.07156 | 2515 ft | 107 kts | 287° |
| 2026-04-22 14:25 | 53.62170 | 10.05948 | 2519 ft | 106 kts | 288° |
| 2026-04-22 14:25 | 53.62328 | 10.04726 | 2519 ft | 107 kts | 286° |
| 2026-04-22 14:25 | 53.62495 | 10.03498 | 2520 ft | 108 kts | 287° |
| 2026-04-22 14:25 | 53.62673 | 10.02256 | 2530 ft | 111 kts | 287° |
| 2026-04-22 14:26 | 53.62858 | 10.01002 | 2515 ft | 109 kts | 287° |
| 2026-04-22 14:26 | 53.63041 | 9.99752 | 2524 ft | 113 kts | 287° |
| 2026-04-22 14:26 | 53.63215 | 9.98455 | 2525 ft | 113 kts | 287° |
| 2026-04-22 14:26 | 53.63389 | 9.97172 | 2523 ft | 112 kts | 287° |
| 2026-04-22 14:27 | 53.63561 | 9.95913 | 2524 ft | 109 kts | 287° |
| 2026-04-22 14:27 | 53.63727 | 9.94685 | 2521 ft | 105 kts | 286° |
| 2026-04-22 14:27 | 53.63897 | 9.93489 | 2518 ft | 107 kts | 287° |
| 2026-04-22 14:27 | 53.64058 | 9.92268 | 2518 ft | 108 kts | 287° |
| 2026-04-22 14:28 | 53.64212 | 9.91038 | 2514 ft | 107 kts | 286° |
| 2026-04-22 14:28 | 53.64376 | 9.89824 | 2523 ft | 107 kts | 287° |
| 2026-04-22 14:28 | 53.64544 | 9.88582 | 2530 ft | 111 kts | 286° |
| 2026-04-22 14:28 | 53.64713 | 9.87321 | 2529 ft | 110 kts | 287° |
| 2026-04-22 14:29 | 53.64889 | 9.86041 | 2530 ft | 112 kts | 293° |
| 2026-04-22 14:29 | 53.65298 | 9.84945 | 2529 ft | 110 kts | 308° |
| 2026-04-22 14:29 | 53.65754 | 9.83942 | 2521 ft | 106 kts | 308° |
| 2026-04-22 14:29 | 53.66217 | 9.82947 | 2520 ft | 109 kts | 308° |
| 2026-04-22 14:30 | 53.66669 | 9.81963 | 2524 ft | 109 kts | 308° |
| 2026-04-22 14:30 | 53.67127 | 9.80964 | 2522 ft | 107 kts | 309° |
| 2026-04-22 14:30 | 53.67586 | 9.79955 | 2535 ft | 112 kts | 308° |
| 2026-04-22 14:30 | 53.68055 | 9.78908 | 2528 ft | 110 kts | 308° |
| 2026-04-22 14:31 | 53.68226 | 9.77676 | 2522 ft | 111 kts | 275° |
| 2026-04-22 14:31 | 53.68228 | 9.76393 | 2521 ft | 108 kts | 276° |
| 2026-04-22 14:31 | 53.68239 | 9.75109 | 2516 ft | 110 kts | 276° |
| 2026-04-22 14:31 | 53.68243 | 9.73832 | 2525 ft | 107 kts | 276° |
| 2026-04-22 14:32 | 53.68255 | 9.72592 | 2541 ft | 109 kts | 276° |
| 2026-04-22 14:32 | 53.68263 | 9.71323 | 2540 ft | 107 kts | 276° |
| 2026-04-22 14:32 | 53.68265 | 9.70064 | 2541 ft | 106 kts | 275° |
| 2026-04-22 14:32 | 53.68276 | 9.68824 | 2553 ft | 107 kts | 277° |
| 2026-04-22 14:33 | 53.68279 | 9.67549 | 2544 ft | 110 kts | 275° |
| 2026-04-22 14:33 | 53.68291 | 9.66257 | 2543 ft | 111 kts | 275° |
| 2026-04-22 14:33 | 53.68304 | 9.64995 | 2541 ft | 105 kts | 277° |
| 2026-04-22 14:33 | 53.68301 | 9.63753 | 2551 ft | 109 kts | 275° |
| 2026-04-22 14:34 | 53.68299 | 9.62430 | 2544 ft | 114 kts | 275° |
| 2026-04-22 14:34 | 53.68314 | 9.61113 | 2557 ft | 112 kts | 275° |
| 2026-04-22 14:34 | 53.68333 | 9.59795 | 2556 ft | 116 kts | 277° |
| 2026-04-22 14:34 | 53.68341 | 9.58452 | 2554 ft | 114 kts | 275° |
| 2026-04-22 14:35 | 53.68376 | 9.57137 | 2552 ft | 109 kts | 283° |
| 2026-04-22 14:35 | 53.68643 | 9.55922 | 2551 ft | 110 kts | 296° |
| 2026-04-22 14:35 | 53.68949 | 9.54709 | 2546 ft | 111 kts | 297° |
| 2026-04-22 14:35 | 53.69411 | 9.53691 | 2541 ft | 107 kts | 311° |
| 2026-04-22 14:36 | 53.69893 | 9.52724 | 2541 ft | 108 kts | 310° |
| 2026-04-22 14:36 | 53.70364 | 9.51757 | 2543 ft | 105 kts | 310° |
| 2026-04-22 14:36 | 53.70839 | 9.50806 | 2548 ft | 107 kts | 309° |
| 2026-04-22 14:36 | 53.71336 | 9.49852 | 2540 ft | 108 kts | 310° |
| 2026-04-22 14:37 | 53.71833 | 9.48900 | 2542 ft | 108 kts | 310° |
| 2026-04-22 14:37 | 53.72324 | 9.47952 | 2543 ft | 107 kts | 310° |
| 2026-04-22 14:37 | 53.72797 | 9.47036 | 2661 ft | 105 kts | 310° |
| 2026-04-22 14:37 | 53.73270 | 9.46105 | 2842 ft | 103 kts | 310° |
| 2026-04-22 14:38 | 53.73724 | 9.45191 | 3025 ft | 102 kts | 310° |
| 2026-04-22 14:38 | 53.74179 | 9.44281 | 3201 ft | 101 kts | 310° |
| 2026-04-22 14:38 | 53.74633 | 9.43357 | 3385 ft | 103 kts | 310° |
| 2026-04-22 14:38 | 53.75112 | 9.42447 | 3545 ft | 106 kts | 317° |
| 2026-04-22 14:39 | 53.75701 | 9.41598 | 3544 ft | 117 kts | 320° |
| 2026-04-22 14:39 | 53.76308 | 9.40630 | 3553 ft | 123 kts | 319° |
| 2026-04-22 14:39 | 53.76951 | 9.39637 | 3560 ft | 127 kts | 320° |
| 2026-04-22 14:40 | 53.78266 | 9.37592 | 3555 ft | 129 kts | 319° |
| 2026-04-22 14:40 | 53.78936 | 9.36562 | 3556 ft | 131 kts | 320° |
| 2026-04-22 14:40 | 53.79611 | 9.35539 | 3557 ft | 132 kts | 320° |
| 2026-04-22 14:40 | 53.80292 | 9.34497 | 3558 ft | 131 kts | 320° |
| 2026-04-22 14:41 | 53.80962 | 9.33452 | 3557 ft | 131 kts | 320° |
| 2026-04-22 14:41 | 53.81637 | 9.32392 | 3547 ft | 132 kts | 319° |
| 2026-04-22 14:41 | 53.82314 | 9.31348 | 3544 ft | 131 kts | 320° |
| 2026-04-22 14:41 | 53.82967 | 9.30316 | 3546 ft | 126 kts | 319° |
| 2026-04-22 14:42 | 53.83600 | 9.29305 | 3541 ft | 122 kts | 319° |
| 2026-04-22 14:42 | 53.84212 | 9.28331 | 3548 ft | 120 kts | 320° |
| 2026-04-22 14:42 | 53.84802 | 9.27379 | 3540 ft | 117 kts | 314° |
| 2026-04-22 14:42 | 53.85248 | 9.26240 | 3540 ft | 115 kts | 304° |
| 2026-04-22 14:43 | 53.85658 | 9.25084 | 3546 ft | 114 kts | 304° |
| 2026-04-22 14:43 | 53.86044 | 9.23956 | 3661 ft | 106 kts | 303° |
| 2026-04-22 14:43 | 53.86355 | 9.22801 | 3841 ft | 110 kts | 294° |
| 2026-04-22 14:43 | 53.86622 | 9.21563 | 4019 ft | 113 kts | 295° |
| 2026-04-22 14:44 | 53.86871 | 9.20307 | 4200 ft | 112 kts | 293° |
| 2026-04-22 14:44 | 53.87133 | 9.19054 | 4377 ft | 112 kts | 294° |
| 2026-04-22 14:44 | 53.87397 | 9.17800 | 4548 ft | 114 kts | 294° |
| 2026-04-22 14:44 | 53.87674 | 9.16495 | 4561 ft | 123 kts | 294° |
| 2026-04-22 14:45 | 53.87959 | 9.15130 | 4564 ft | 121 kts | 294° |
| 2026-04-22 14:45 | 53.88240 | 9.13799 | 4561 ft | 118 kts | 294° |
| 2026-04-22 14:45 | 53.88514 | 9.12500 | 4560 ft | 117 kts | 294° |
| 2026-04-22 14:45 | 53.88768 | 9.11208 | 4559 ft | 114 kts | 294° |
| 2026-04-22 14:46 | 53.89002 | 9.09931 | 4554 ft | 112 kts | 294° |
| 2026-04-22 14:46 | 53.89236 | 9.08691 | 4559 ft | 111 kts | 294° |
| 2026-04-22 14:46 | 53.89465 | 9.07420 | 4552 ft | 114 kts | 292° |
| 2026-04-22 14:46 | 53.89712 | 9.06154 | 4554 ft | 113 kts | 294° |
| 2026-04-22 14:47 | 53.89955 | 9.04890 | 4555 ft | 112 kts | 293° |
| 2026-04-22 14:47 | 53.90210 | 9.03644 | 4559 ft | 111 kts | 295° |
| 2026-04-22 14:47 | 53.90441 | 9.02396 | 4559 ft | 110 kts | 292° |
| 2026-04-22 14:47 | 53.90672 | 9.01168 | 4560 ft | 110 kts | 293° |
| 2026-04-22 14:48 | 53.90948 | 8.99969 | 4564 ft | 108 kts | 304° |
| 2026-04-22 14:48 | 53.91283 | 8.98834 | 4571 ft | 109 kts | 303° |
| 2026-04-22 14:48 | 53.91706 | 8.97798 | 4567 ft | 106 kts | 319° |
| 2026-04-22 14:48 | 53.92208 | 8.96894 | 4563 ft | 104 kts | 318° |
| 2026-04-22 14:49 | 53.92705 | 8.95986 | 4565 ft | 106 kts | 314° |
| 2026-04-22 14:49 | 53.93187 | 8.95015 | 4552 ft | 109 kts | 314° |
| 2026-04-22 14:49 | 53.93653 | 8.94029 | 4565 ft | 108 kts | 314° |
| 2026-04-22 14:49 | 53.94113 | 8.93021 | 4559 ft | 107 kts | 313° |
| 2026-04-22 14:50 | 53.94592 | 8.92026 | 4556 ft | 109 kts | 314° |
| 2026-04-22 14:50 | 53.95078 | 8.91028 | 4557 ft | 110 kts | 314° |
| 2026-04-22 14:50 | 53.95553 | 8.90018 | 4566 ft | 110 kts | 313° |
| 2026-04-22 14:50 | 53.96036 | 8.89002 | 4563 ft | 111 kts | 314° |
| 2026-04-22 14:51 | 53.96511 | 8.87986 | 4565 ft | 108 kts | 314° |
| 2026-04-22 14:51 | 53.96969 | 8.86975 | 4563 ft | 108 kts | 313° |
| 2026-04-22 14:51 | 53.97438 | 8.85989 | 4560 ft | 109 kts | 314° |
| 2026-04-22 14:51 | 53.97903 | 8.84988 | 4566 ft | 107 kts | 313° |
| 2026-04-22 14:52 | 53.98361 | 8.83986 | 4566 ft | 106 kts | 314° |
| 2026-04-22 14:52 | 53.98811 | 8.82990 | 4566 ft | 105 kts | 314° |
| 2026-04-22 14:52 | 53.99250 | 8.81999 | 4566 ft | 105 kts | 313° |
| 2026-04-22 14:52 | 53.99692 | 8.81008 | 4562 ft | 106 kts | 313° |
| 2026-04-22 14:53 | 54.00147 | 8.80047 | 4565 ft | 106 kts | 313° |
| 2026-04-22 14:53 | 54.00603 | 8.79070 | 4566 ft | 105 kts | 314° |
| 2026-04-22 14:53 | 54.01043 | 8.78076 | 4566 ft | 106 kts | 314° |
| 2026-04-22 14:53 | 54.01492 | 8.77081 | 4567 ft | 107 kts | 312° |
| 2026-04-22 14:54 | 54.01963 | 8.76091 | 4564 ft | 109 kts | 313° |
| 2026-04-22 14:54 | 54.02445 | 8.75090 | 4566 ft | 110 kts | 313° |
| 2026-04-22 14:54 | 54.02925 | 8.74080 | 4570 ft | 109 kts | 314° |
| 2026-04-22 14:54 | 54.03395 | 8.73060 | 4569 ft | 109 kts | 314° |
| 2026-04-22 14:55 | 54.03858 | 8.72047 | 4566 ft | 106 kts | 318° |
| 2026-04-22 14:55 | 54.04520 | 8.71664 | 4562 ft | 102 kts | 354° |
| 2026-04-22 14:55 | 54.05222 | 8.71496 | 4566 ft | 102 kts | 352° |
| 2026-04-22 14:55 | 54.05918 | 8.71319 | 4569 ft | 102 kts | 352° |
| 2026-04-22 14:56 | 54.06627 | 8.71137 | 4568 ft | 103 kts | 352° |
| 2026-04-22 14:56 | 54.07331 | 8.70954 | 4565 ft | 102 kts | 352° |
| 2026-04-22 14:56 | 54.08035 | 8.70777 | 4563 ft | 103 kts | 352° |
| 2026-04-22 14:56 | 54.08750 | 8.70600 | 4564 ft | 103 kts | 352° |
| 2026-04-22 14:57 | 54.09454 | 8.70419 | 4564 ft | 103 kts | 352° |
| 2026-04-22 14:57 | 54.10160 | 8.70231 | 4567 ft | 102 kts | 352° |
| 2026-04-22 14:57 | 54.10857 | 8.70041 | 4569 ft | 101 kts | 352° |
| 2026-04-22 14:57 | 54.11554 | 8.69858 | 4563 ft | 102 kts | 352° |
| 2026-04-22 14:58 | 54.12257 | 8.69676 | 4567 ft | 102 kts | 352° |
| 2026-04-22 14:58 | 54.12959 | 8.69487 | 4571 ft | 104 kts | 352° |
| 2026-04-22 14:58 | 54.13677 | 8.69288 | 4569 ft | 105 kts | 352° |
| 2026-04-22 14:58 | 54.14395 | 8.69089 | 4575 ft | 104 kts | 352° |
| 2026-04-22 14:59 | 54.15114 | 8.68894 | 4576 ft | 104 kts | 352° |
| 2026-04-22 14:59 | 54.15825 | 8.68706 | 4579 ft | 104 kts | 352° |
| 2026-04-22 14:59 | 54.16534 | 8.68514 | 4575 ft | 103 kts | 351° |
| 2026-04-22 14:59 | 54.17247 | 8.68321 | 4575 ft | 103 kts | 351° |
| 2026-04-22 15:00 | 54.17956 | 8.68131 | 4572 ft | 103 kts | 351° |
| 2026-04-22 15:00 | 54.18673 | 8.67942 | 4572 ft | 105 kts | 351° |
| 2026-04-22 15:00 | 54.19380 | 8.67641 | 4575 ft | 104 kts | 346° |
| 2026-04-22 15:00 | 54.20076 | 8.67313 | 4575 ft | 104 kts | 346° |
| 2026-04-22 15:01 | 54.20769 | 8.66987 | 4578 ft | 103 kts | 346° |
| 2026-04-22 15:01 | 54.21458 | 8.66666 | 4576 ft | 103 kts | 346° |
| 2026-04-22 15:01 | 54.22146 | 8.66346 | 4575 ft | 103 kts | 346° |
| 2026-04-22 15:01 | 54.22830 | 8.66030 | 4577 ft | 102 kts | 346° |
| 2026-04-22 15:02 | 54.23520 | 8.65708 | 4577 ft | 103 kts | 346° |
| 2026-04-22 15:02 | 54.24222 | 8.65393 | 4573 ft | 105 kts | 346° |
| 2026-04-22 15:02 | 54.24928 | 8.65072 | 4578 ft | 105 kts | 346° |
| 2026-04-22 15:02 | 54.25629 | 8.64741 | 4572 ft | 105 kts | 346° |
| 2026-04-22 15:03 | 54.26327 | 8.64417 | 4573 ft | 103 kts | 346° |
| 2026-04-22 15:03 | 54.27011 | 8.64084 | 4573 ft | 102 kts | 346° |
| 2026-04-22 15:03 | 54.27701 | 8.63759 | 4570 ft | 103 kts | 346° |
| 2026-04-22 15:03 | 54.28404 | 8.63437 | 4577 ft | 106 kts | 346° |
| 2026-04-22 15:04 | 54.29118 | 8.63107 | 4570 ft | 106 kts | 346° |
| 2026-04-22 15:04 | 54.29819 | 8.62783 | 4571 ft | 106 kts | 346° |
| 2026-04-22 15:04 | 54.30527 | 8.62443 | 4571 ft | 105 kts | 346° |
| 2026-04-22 15:04 | 54.31225 | 8.62106 | 4569 ft | 105 kts | 346° |
| 2026-04-22 15:05 | 54.31926 | 8.61770 | 4570 ft | 104 kts | 346° |
| 2026-04-22 15:05 | 54.32611 | 8.61434 | 4571 ft | 102 kts | 345° |
| 2026-04-22 15:05 | 54.33297 | 8.61102 | 4567 ft | 104 kts | 344° |
| 2026-04-22 15:05 | 54.33958 | 8.60587 | 4573 ft | 105 kts | 336° |
| 2026-04-22 15:06 | 54.34397 | 8.60234 | 4572 ft | 105 kts | 337° |
| 2026-04-22 15:06 | 54.35306 | 8.59524 | 4570 ft | 109 kts | 337° |
| 2026-04-22 15:06 | 54.35989 | 8.58988 | 4573 ft | 107 kts | 337° |
| 2026-04-22 15:06 | 54.36661 | 8.58451 | 4571 ft | 106 kts | 336° |
| 2026-04-22 15:07 | 54.37335 | 8.57922 | 4569 ft | 106 kts | 338° |
| 2026-04-22 15:07 | 54.37988 | 8.57394 | 4570 ft | 104 kts | 337° |
| 2026-04-22 15:07 | 54.38641 | 8.56859 | 4568 ft | 103 kts | 338° |
| 2026-04-22 15:07 | 54.39290 | 8.56324 | 4567 ft | 104 kts | 337° |
| 2026-04-22 15:08 | 54.39943 | 8.55792 | 4571 ft | 103 kts | 337° |
| 2026-04-22 15:08 | 54.40597 | 8.55258 | 4568 ft | 104 kts | 336° |
| 2026-04-22 15:08 | 54.41263 | 8.54733 | 4567 ft | 106 kts | 337° |
| 2026-04-22 15:08 | 54.41942 | 8.54206 | 4571 ft | 106 kts | 337° |
| 2026-04-22 15:09 | 54.42609 | 8.53666 | 4574 ft | 105 kts | 337° |
| 2026-04-22 15:09 | 54.43276 | 8.53125 | 4572 ft | 106 kts | 337° |
| 2026-04-22 15:09 | 54.43948 | 8.52573 | 4475 ft | 110 kts | 336° |
| 2026-04-22 15:09 | 54.44648 | 8.52002 | 4354 ft | 114 kts | 336° |
| 2026-04-22 15:10 | 54.45381 | 8.51412 | 4150 ft | 118 kts | 337° |
| 2026-04-22 15:10 | 54.46136 | 8.50815 | 3955 ft | 119 kts | 336° |
| 2026-04-22 15:10 | 54.46898 | 8.50220 | 3751 ft | 121 kts | 336° |
| 2026-04-22 15:10 | 54.47668 | 8.49635 | 3556 ft | 120 kts | 336° |
| 2026-04-22 15:11 | 54.48442 | 8.49068 | 3347 ft | 119 kts | 336° |
| 2026-04-22 15:11 | 54.49203 | 8.48523 | 3141 ft | 119 kts | 336° |
| 2026-04-22 15:11 | 54.49968 | 8.47986 | 2938 ft | 119 kts | 336° |
| 2026-04-22 15:11 | 54.50726 | 8.47464 | 2740 ft | 119 kts | 336° |
| 2026-04-22 15:12 | 54.51500 | 8.46939 | 2576 ft | 119 kts | 336° |
| 2026-04-22 15:12 | 54.52241 | 8.46437 | 2566 ft | 110 kts | 336° |
| 2026-04-22 15:12 | 54.52930 | 8.45977 | 2560 ft | 104 kts | 336° |
| 2026-04-22 15:12 | 54.53601 | 8.45520 | 2533 ft | 104 kts | 336° |
| 2026-04-22 15:13 | 54.54265 | 8.45062 | 2533 ft | 101 kts | 336° |
| 2026-04-22 15:13 | 54.54910 | 8.44608 | 2527 ft | 98 kts | 336° |
| 2026-04-22 15:13 | 54.55328 | 8.44309 | 2522 ft | 98 kts | 336° |
| 2026-04-22 15:13 | 54.55954 | 8.43862 | 2520 ft | 97 kts | 336° |
| 2026-04-22 15:14 | 54.56586 | 8.43419 | 2474 ft | 101 kts | 336° |
| 2026-04-22 15:14 | 54.57251 | 8.42952 | 2383 ft | 106 kts | 336° |
| 2026-04-22 15:14 | 54.57941 | 8.42455 | 2281 ft | 108 kts | 336° |
| 2026-04-22 15:14 | 54.58641 | 8.41982 | 2181 ft | 108 kts | 336° |
| 2026-04-22 15:15 | 54.59348 | 8.41496 | 2077 ft | 110 kts | 336° |
| 2026-04-22 15:15 | 54.60056 | 8.40994 | 2030 ft | 107 kts | 335° |
| 2026-04-22 15:15 | 54.60725 | 8.40527 | 2028 ft | 101 kts | 336° |
| 2026-04-22 15:15 | 54.61372 | 8.40081 | 2023 ft | 100 kts | 336° |
| 2026-04-22 15:16 | 54.62016 | 8.39651 | 2025 ft | 99 kts | 336° |
| 2026-04-22 15:16 | 54.62654 | 8.39232 | 2021 ft | 98 kts | 336° |
| 2026-04-22 15:16 | 54.63278 | 8.38811 | 2019 ft | 98 kts | 336° |
| 2026-04-22 15:16 | 54.63912 | 8.38377 | 2020 ft | 97 kts | 335° |
| 2026-04-22 15:17 | 54.64544 | 8.37945 | 2020 ft | 98 kts | 335° |
| 2026-04-22 15:17 | 54.65175 | 8.37500 | 2022 ft | 98 kts | 335° |
| 2026-04-22 15:17 | 54.65809 | 8.37052 | 2024 ft | 99 kts | 335° |
| 2026-04-22 15:17 | 54.66445 | 8.36617 | 2025 ft | 99 kts | 336° |
| 2026-04-22 15:18 | 54.67086 | 8.36174 | 2019 ft | 99 kts | 336° |
| 2026-04-22 15:18 | 54.67729 | 8.35742 | 2022 ft | 99 kts | 335° |
| 2026-04-22 15:18 | 54.68370 | 8.35317 | 2021 ft | 99 kts | 336° |
| 2026-04-22 15:18 | 54.69013 | 8.34875 | 2021 ft | 100 kts | 335° |
| 2026-04-22 15:19 | 54.69661 | 8.34431 | 2022 ft | 100 kts | 335° |
| 2026-04-22 15:19 | 54.70310 | 8.33984 | 2019 ft | 101 kts | 335° |
| 2026-04-22 15:19 | 54.70962 | 8.33528 | 2017 ft | 100 kts | 335° |
| 2026-04-22 15:19 | 54.71593 | 8.33091 | 2019 ft | 97 kts | 335° |
| 2026-04-22 15:20 | 54.72219 | 8.32656 | 2020 ft | 97 kts | 335° |
| 2026-04-22 15:20 | 54.72841 | 8.32220 | 2021 ft | 96 kts | 335° |
| 2026-04-22 15:20 | 54.73464 | 8.31792 | 2019 ft | 97 kts | 337° |
| 2026-04-22 15:20 | 54.74122 | 8.31529 | 2017 ft | 97 kts | 347° |
| 2026-04-22 15:21 | 54.74807 | 8.31479 | 2016 ft | 99 kts | 357° |
| 2026-04-22 15:21 | 54.75500 | 8.31571 | 2016 ft | 101 kts | 358° |
| 2026-04-22 15:21 | 54.76212 | 8.31633 | 2015 ft | 103 kts | 356° |
| 2026-04-22 15:21 | 54.76913 | 8.31730 | 2017 ft | 101 kts | 358° |
| 2026-04-22 15:22 | 54.77618 | 8.31826 | 2014 ft | 101 kts | 356° |
| 2026-04-22 15:22 | 54.78317 | 8.31951 | 2015 ft | 100 kts | 358° |
| 2026-04-22 15:22 | 54.79009 | 8.32043 | 2011 ft | 99 kts | 358° |
| 2026-04-22 15:22 | 54.79697 | 8.32125 | 2010 ft | 99 kts | 359° |
| 2026-04-22 15:23 | 54.80385 | 8.32192 | 2011 ft | 99 kts | 354° |
| 2026-04-22 15:23 | 54.81078 | 8.32164 | 2013 ft | 100 kts | 351° |
| 2026-04-22 15:23 | 54.81772 | 8.32149 | 2012 ft | 100 kts | 354° |
| 2026-04-22 15:23 | 54.82466 | 8.32102 | 2014 ft | 100 kts | 352° |
| 2026-04-22 15:24 | 54.83098 | 8.32432 | 1972 ft | 99 kts | 24° |
| 2026-04-22 15:24 | 54.83650 | 8.33100 | 1826 ft | 96 kts | 23° |
| 2026-04-22 15:24 | 54.84203 | 8.33772 | 1733 ft | 98 kts | 28° |
| 2026-04-22 15:24 | 54.84731 | 8.34485 | 1729 ft | 93 kts | 30° |
| 2026-04-22 15:25 | 54.85230 | 8.35221 | 1646 ft | 97 kts | 30° |
| 2026-04-22 15:25 | 54.85745 | 8.35953 | 1589 ft | 95 kts | 28° |
| 2026-04-22 15:25 | 54.86259 | 8.36666 | 1441 ft | 94 kts | 30° |
| 2026-04-22 15:25 | 54.86732 | 8.37345 | 1278 ft | 89 kts | 26° |
| 2026-04-22 15:26 | 54.87228 | 8.37952 | 1160 ft | 87 kts | 18° |
| 2026-04-22 15:26 | 54.87797 | 8.38109 | 1030 ft | 78 kts | 346° |
| 2026-04-22 15:26 | 54.88312 | 8.37755 | 841 ft | 78 kts | 328° |
| 2026-04-22 15:26 | 54.88759 | 8.37248 | 653 ft | 76 kts | 324° |
| 2026-04-22 15:27 | 54.89189 | 8.36695 | 465 ft | 78 kts | 323° |
| 2026-04-22 15:27 | 54.89630 | 8.36141 | 292 ft | 79 kts | 326° |
| 2026-04-22 15:27 | 54.90068 | 8.35604 | 169 ft | 74 kts | 323° |
| 2026-04-22 15:27 | 54.90478 | 8.35097 | 66 ft | 68 kts | 323° |
| 2026-04-22 15:28 | 54.90842 | 8.34638 | 161 ft | 70 kts | 322° |
| 2026-04-22 15:28 | 54.91261 | 8.34147 | 473 ft | 76 kts | 343° |
| 2026-04-22 15:28 | 54.91688 | 8.34764 | 757 ft | 99 kts | 54° |
| 2026-04-22 15:28 | 54.91870 | 8.35951 | 964 ft | 111 kts | 99° |
| 2026-04-22 15:29 | 54.91333 | 8.36968 | 1055 ft | 125 kts | 141° |
| 2026-04-22 15:29 | 54.90645 | 8.37917 | 1090 ft | 128 kts | 144° |
| 2026-04-22 15:29 | 54.89930 | 8.38837 | 1085 ft | 129 kts | 144° |
| 2026-04-22 15:30 | 54.88557 | 8.40658 | 1103 ft | 121 kts | 144° |
| 2026-04-22 15:30 | 54.87853 | 8.40789 | 1150 ft | 98 kts | 229° |
| 2026-04-22 15:30 | 54.87705 | 8.39801 | 1164 ft | 86 kts | 280° |
| 2026-04-22 15:30 | 54.87862 | 8.38764 | 995 ft | 92 kts | 298° |
| 2026-04-22 15:31 | 54.88222 | 8.37910 | 821 ft | 81 kts | 318° |
| 2026-04-22 15:31 | 54.88635 | 8.37357 | 682 ft | 73 kts | 324° |
| 2026-04-22 15:31 | 54.89064 | 8.36846 | 533 ft | 77 kts | 322° |
| 2026-04-22 15:31 | 54.89525 | 8.36292 | 376 ft | 81 kts | 328° |
| 2026-04-22 15:32 | 54.89979 | 8.35715 | 219 ft | 80 kts | 324° |
| 2026-04-22 15:32 | 54.90415 | 8.35175 | 66 ft | 71 kts | 323° |
| 2026-04-22 15:32 | 54.90760 | 8.34751 | 52 ft | 51 kts | 323° |
| 2026-04-22 15:32 | 54.91074 | 8.34361 | 113 ft | 69 kts | 324° |
| 2026-04-22 15:33 | 54.91520 | 8.33958 | 408 ft | 79 kts | 355° |
| 2026-04-22 15:33 | 54.91943 | 8.34751 | 691 ft | 102 kts | 57° |
| 2026-04-22 15:33 | 54.91944 | 8.35993 | 992 ft | 112 kts | 114° |
| 2026-04-22 15:33 | 54.91390 | 8.36976 | 1125 ft | 120 kts | 140° |
| 2026-04-22 15:34 | 54.90721 | 8.37935 | 1140 ft | 126 kts | 142° |
| 2026-04-22 15:34 | 54.90032 | 8.38848 | 1145 ft | 123 kts | 144° |
| 2026-04-22 15:34 | 54.89344 | 8.39734 | 1103 ft | 122 kts | 144° |
| 2026-04-22 15:34 | 54.88662 | 8.40571 | 1148 ft | 114 kts | 160° |
| 2026-04-22 15:35 | 54.88173 | 8.40594 | 1153 ft | 104 kts | 212° |
| 2026-04-22 15:35 | 54.87787 | 8.39384 | 1084 ft | 88 kts | 290° |
| 2026-04-22 15:35 | 54.88025 | 8.38370 | 931 ft | 93 kts | 306° |
| 2026-04-22 15:35 | 54.88487 | 8.37569 | 718 ft | 95 kts | 321° |
| 2026-04-22 15:36 | 54.89017 | 8.36913 | 523 ft | 93 kts | 324° |
| 2026-04-22 15:36 | 54.89539 | 8.36263 | 336 ft | 94 kts | 324° |
| 2026-04-22 15:36 | 54.90048 | 8.35628 | 174 ft | 82 kts | 324° |
| 2026-04-22 15:36 | 54.90455 | 8.35126 | 61 ft | 62 kts | 324° |
| 2026-04-22 15:37 | 54.90756 | 8.34752 | 52 ft | 46 kts | 324° |
| 2026-04-22 15:37 | 54.91091 | 8.34343 | 158 ft | 71 kts | 324° |
| 2026-04-22 15:37 | 54.91553 | 8.34145 | 530 ft | 78 kts | 14° |
| 2026-04-22 15:37 | 54.91932 | 8.35046 | 729 ft | 104 kts | 46° |
| 2026-04-22 15:38 | 54.92046 | 8.36289 | 1029 ft | 117 kts | 112° |
| 2026-04-22 15:38 | 54.90775 | 8.38323 | 1044 ft | 119 kts | 142° |
| 2026-04-22 15:38 | 54.90149 | 8.39203 | 1011 ft | 115 kts | 142° |
| 2026-04-22 15:39 | 54.89471 | 8.39754 | 1030 ft | 104 kts | 188° |
| 2026-04-22 15:39 | 54.88867 | 8.39227 | 947 ft | 98 kts | 232° |
| 2026-04-22 15:39 | 54.88613 | 8.38287 | 938 ft | 84 kts | 277° |
| 2026-04-22 15:39 | 54.88802 | 8.37331 | 788 ft | 79 kts | 309° |
| 2026-04-22 15:40 | 54.89176 | 8.36715 | 581 ft | 71 kts | 323° |
| 2026-04-22 15:40 | 54.89578 | 8.36215 | 416 ft | 71 kts | 325° |
| 2026-04-22 15:40 | 54.89973 | 8.35722 | 272 ft | 73 kts | 324° |
| 2026-04-22 15:40 | 54.90372 | 8.35232 | 109 ft | 70 kts | 323° |
| 2026-04-22 15:41 | 54.90800 | 8.34697 | 99 ft | 80 kts | 323° |
| 2026-04-22 15:41 | 54.91263 | 8.34127 | 106 ft | 83 kts | 324° |
| 2026-04-22 15:41 | 54.91735 | 8.33531 | 123 ft | 82 kts | 324° |
| 2026-04-22 15:41 | 54.92186 | 8.33188 | 305 ft | 76 kts | 4° |
| 2026-04-22 15:42 | 54.92571 | 8.33949 | 468 ft | 91 kts | 50° |
| 2026-04-22 15:42 | 54.92725 | 8.35038 | 622 ft | 108 kts | 99° |
| 2026-04-22 15:42 | 54.92217 | 8.36025 | 745 ft | 113 kts | 140° |
| 2026-04-22 15:42 | 54.91587 | 8.36874 | 829 ft | 120 kts | 142° |
| 2026-04-22 15:43 | 54.90939 | 8.37787 | 961 ft | 120 kts | 142° |
| 2026-04-22 15:43 | 54.90281 | 8.38711 | 987 ft | 123 kts | 141° |
| 2026-04-22 15:43 | 54.89659 | 8.39622 | 1095 ft | 118 kts | 148° |
| 2026-04-22 15:43 | 54.88930 | 8.39707 | 875 ft | 96 kts | 216° |
| 2026-04-22 15:44 | 54.88530 | 8.38966 | 774 ft | 80 kts | 271° |
| 2026-04-22 15:44 | 54.88593 | 8.38012 | 710 ft | 82 kts | 292° |
| 2026-04-22 15:44 | 54.88878 | 8.37173 | 586 ft | 77 kts | 314° |
| 2026-04-22 15:44 | 54.89240 | 8.36607 | 438 ft | 66 kts | 324° |
| 2026-04-22 15:45 | 54.89642 | 8.36123 | 263 ft | 72 kts | 326° |
| 2026-04-22 15:45 | 54.90031 | 8.35654 | 175 ft | 65 kts | 324° |
| 2026-04-22 15:45 | 54.90385 | 8.35209 | 86 ft | 61 kts | 323° |
| 2026-04-22 15:45 | 54.90693 | 8.34829 | 52 ft | 44 kts | 323° |
| 2026-04-22 15:46 | 54.90884 | 8.34591 | 53 ft | 26 kts | 324° |
| 2026-04-22 15:46 | 54.91012 | 8.34433 | 55 ft | 21 kts | 324° |
| 2026-04-22 15:46 | 54.91147 | 8.34266 | 55 ft | 29 kts | 324° |
| 2026-04-22 15:46 | 54.91291 | 8.34088 | 54 ft | 19 kts | 324° |
| 2026-04-22 15:47 | 54.91281 | 8.33920 | 52 ft | 17 kts | 240° |
| 2026-04-22 15:47 | 54.91204 | 8.33697 | 51 ft | 25 kts | 242° |
| 2026-04-22 15:47 | 54.91116 | 8.33429 | 51 ft | 24 kts | 239° |
| 2026-04-22 15:47 | 54.91038 | 8.33197 | 52 ft | 21 kts | 242° |
| 2026-04-22 15:48 | 54.91010 | 8.33017 | 53 ft | 14 kts | 296° |
| 2026-04-22 15:48 | 54.91067 | 8.32896 | 53 ft | 13 kts | 312° |
| 2026-04-22 15:48 | 54.91130 | 8.32771 | 53 ft | 15 kts | 312° |
| 2026-04-22 15:48 | 54.91204 | 8.32629 | 53 ft | 17 kts | 321° |
| 2026-04-22 15:49 | 54.91306 | 8.32524 | 53 ft | 17 kts | 343° |
| 2026-04-22 15:49 | 54.91397 | 8.32509 | 53 ft | 8 kts | 41° |
| 2026-04-22 15:49 | 54.91402 | 8.32529 | 53 ft | 0 kts | 85° |